sensor_id;sensor_type;location;lat;lon;timestamp;pressure;altitude;pressure_sealevel;temperature;humidity
55301;BME280;58302;51.446;-2.000;2023-03-15T00:00:39;100369.41;;;-1.02;100.00
55301;BME280;58302;51.446;-2.000;2023-03-15T00:03:07;100370.44;;;-1.03;100.00
55301;BME280;58302;51.446;-2.000;2023-03-15T00:05:34;100378.94;;;-1.15;100.00
55301;BME280;58302;51.446;-2.000;2023-03-15T00:08:00;100381.66;;;-1.29;100.00
55301;BME280;58302;51.446;-2.000;2023-03-15T00:10:29;100395.69;;;-1.42;100.00
55301;BME280;58302;51.446;-2.000;2023-03-15T00:12:55;100409.88;;;-1.56;100.00
55301;BME280;58302;51.446;-2.000;2023-03-15T00:15:21;100410.81;;;-1.64;100.00
55301;BME280;58302;51.446;-2.000;2023-03-15T00:17:47;100413.34;;;-1.56;100.00
55301;BME280;58302;51.446;-2.000;2023-03-15T00:20:13;100404.59;;;-1.50;100.00
55301;BME280;58302;51.446;-2.000;2023-03-15T00:22:40;100405.34;;;-1.56;100.00
55301;BME280;58302;51.446;-2.000;2023-03-15T00:25:06;100409.78;;;-1.63;100.00
55301;BME280;58302;51.446;-2.000;2023-03-15T00:27:33;100411.78;;;-1.65;100.00
55301;BME280;58302;51.446;-2.000;2023-03-15T00:29:58;100404.00;;;-1.67;100.00
55301;BME280;58302;51.446;-2.000;2023-03-15T00:32:24;100413.84;;;-1.67;100.00
55301;BME280;58302;51.446;-2.000;2023-03-15T00:34:50;100404.94;;;-1.74;100.00
55301;BME280;58302;51.446;-2.000;2023-03-15T00:37:20;100411.56;;;-1.70;100.00
55301;BME280;58302;51.446;-2.000;2023-03-15T00:39:47;100409.25;;;-1.58;100.00
55301;BME280;58302;51.446;-2.000;2023-03-15T00:42:13;100422.56;;;-1.58;100.00
55301;BME280;58302;51.446;-2.000;2023-03-15T00:44:41;100420.38;;;-1.70;100.00
55301;BME280;58302;51.446;-2.000;2023-03-15T00:47:10;100426.63;;;-1.77;100.00
55301;BME280;58302;51.446;-2.000;2023-03-15T00:49:37;100424.13;;;-1.79;100.00
55301;BME280;58302;51.446;-2.000;2023-03-15T00:52:04;100424.84;;;-1.55;100.00
55301;BME280;58302;51.446;-2.000;2023-03-15T00:54:30;100421.97;;;-1.54;100.00
55301;BME280;58302;51.446;-2.000;2023-03-15T00:57:00;100408.28;;;-1.51;100.00
55301;BME280;58302;51.446;-2.000;2023-03-15T00:59:31;100409.25;;;-1.58;100.00
55301;BME280;58302;51.446;-2.000;2023-03-15T01:02:03;100406.22;;;-1.70;100.00
55301;BME280;58302;51.446;-2.000;2023-03-15T01:04:30;100416.34;;;-1.80;100.00
55301;BME280;58302;51.446;-2.000;2023-03-15T01:06:57;100417.25;;;-1.88;100.00
55301;BME280;58302;51.446;-2.000;2023-03-15T01:09:23;100424.69;;;-1.98;100.00
55301;BME280;58302;51.446;-2.000;2023-03-15T01:11:49;100428.56;;;-2.01;100.00
55301;BME280;58302;51.446;-2.000;2023-03-15T01:14:16;100425.63;;;-2.06;100.00
55301;BME280;58302;51.446;-2.000;2023-03-15T01:16:44;100427.38;;;-2.13;100.00
55301;BME280;58302;51.446;-2.000;2023-03-15T01:19:11;100425.88;;;-2.16;100.00
55301;BME280;58302;51.446;-2.000;2023-03-15T01:21:38;100433.81;;;-2.07;100.00
55301;BME280;58302;51.446;-2.000;2023-03-15T01:24:04;100432.25;;;-2.02;100.00
55301;BME280;58302;51.446;-2.000;2023-03-15T01:26:30;100432.25;;;-2.02;100.00
55301;BME280;58302;51.446;-2.000;2023-03-15T01:28:56;100434.25;;;-2.04;100.00
55301;BME280;58302;51.446;-2.000;2023-03-15T01:31:25;100441.13;;;-1.95;100.00
55301;BME280;58302;51.446;-2.000;2023-03-15T01:33:52;100447.94;;;-1.92;100.00
55301;BME280;58302;51.446;-2.000;2023-03-15T01:36:18;100460.50;;;-2.01;100.00
55301;BME280;58302;51.446;-2.000;2023-03-15T01:38:45;100465.91;;;-2.09;100.00
55301;BME280;58302;51.446;-2.000;2023-03-15T01:41:12;100473.06;;;-2.24;100.00
55301;BME280;58302;51.446;-2.000;2023-03-15T01:43:38;100468.06;;;-2.42;100.00
55301;BME280;58302;51.446;-2.000;2023-03-15T01:46:30;100466.94;;;-2.48;100.00
55301;BME280;58302;51.446;-2.000;2023-03-15T01:59:40;100475.97;;;-2.95;100.00
55301;BME280;58302;51.446;-2.000;2023-03-15T02:02:08;100479.66;;;-2.96;100.00
55301;BME280;58302;51.446;-2.000;2023-03-15T02:04:37;100485.97;;;-2.97;100.00
55301;BME280;58302;51.446;-2.000;2023-03-15T02:07:06;100481.00;;;-3.00;100.00
55301;BME280;58302;51.446;-2.000;2023-03-15T02:09:56;100485.19;;;-3.05;100.00
55301;BME280;58302;51.446;-2.000;2023-03-15T02:12:25;100486.72;;;-3.11;100.00
55301;BME280;58302;51.446;-2.000;2023-03-15T02:14:52;100481.41;;;-3.11;100.00
55301;BME280;58302;51.446;-2.000;2023-03-15T02:17:21;100487.34;;;-3.09;100.00
55301;BME280;58302;51.446;-2.000;2023-03-15T02:20:05;100476.91;;;-3.10;100.00
55301;BME280;58302;51.446;-2.000;2023-03-15T02:22:46;100472.31;;;-2.94;100.00
55301;BME280;58302;51.446;-2.000;2023-03-15T02:25:24;100476.31;;;-2.52;100.00
55301;BME280;58302;51.446;-2.000;2023-03-15T02:27:52;100484.00;;;-2.19;100.00
55301;BME280;58302;51.446;-2.000;2023-03-15T02:30:18;100478.69;;;-2.19;100.00
55301;BME280;58302;51.446;-2.000;2023-03-15T02:32:45;100478.66;;;-2.34;100.00
55301;BME280;58302;51.446;-2.000;2023-03-15T02:35:11;100484.31;;;-2.52;100.00
55301;BME280;58302;51.446;-2.000;2023-03-15T02:37:37;100492.13;;;-2.73;100.00
55301;BME280;58302;51.446;-2.000;2023-03-15T02:40:15;100493.88;;;-2.88;100.00
55301;BME280;58302;51.446;-2.000;2023-03-15T02:42:42;100492.97;;;-3.04;100.00
55301;BME280;58302;51.446;-2.000;2023-03-15T02:45:09;100482.75;;;-3.15;100.00
55301;BME280;58302;51.446;-2.000;2023-03-15T02:47:35;100477.09;;;-3.12;100.00
55301;BME280;58302;51.446;-2.000;2023-03-15T02:50:01;100477.69;;;-3.02;100.00
55301;BME280;58302;51.446;-2.000;2023-03-15T02:52:27;100469.16;;;-2.97;100.00
55301;BME280;58302;51.446;-2.000;2023-03-15T02:54:53;100463.28;;;-2.84;100.00
55301;BME280;58302;51.446;-2.000;2023-03-15T02:57:20;100454.19;;;-2.90;100.00
55301;BME280;58302;51.446;-2.000;2023-03-15T02:59:46;100446.25;;;-2.98;100.00
55301;BME280;58302;51.446;-2.000;2023-03-15T03:02:15;100461.44;;;-3.07;100.00
55301;BME280;58302;51.446;-2.000;2023-03-15T03:04:41;100463.50;;;-3.17;100.00
55301;BME280;58302;51.446;-2.000;2023-03-15T03:07:07;100467.50;;;-3.21;100.00
55301;BME280;58302;51.446;-2.000;2023-03-15T03:09:33;100458.06;;;-3.24;100.00
55301;BME280;58302;51.446;-2.000;2023-03-15T03:11:59;100462.59;;;-3.32;100.00
55301;BME280;58302;51.446;-2.000;2023-03-15T03:14:25;100477.59;;;-3.39;100.00
55301;BME280;58302;51.446;-2.000;2023-03-15T03:16:51;100483.91;;;-3.40;100.00
55301;BME280;58302;51.446;-2.000;2023-03-15T03:19:17;100482.72;;;-3.38;100.00
55301;BME280;58302;51.446;-2.000;2023-03-15T03:21:43;100484.72;;;-3.40;100.00
55301;BME280;58302;51.446;-2.000;2023-03-15T03:24:09;100490.50;;;-3.36;100.00
55301;BME280;58302;51.446;-2.000;2023-03-15T03:26:35;100499.84;;;-3.40;100.00
55301;BME280;58302;51.446;-2.000;2023-03-15T03:29:03;100503.47;;;-3.41;100.00
55301;BME280;58302;51.446;-2.000;2023-03-15T03:31:30;100497.00;;;-3.39;100.00
55301;BME280;58302;51.446;-2.000;2023-03-15T03:33:58;100493.66;;;-3.41;100.00
55301;BME280;58302;51.446;-2.000;2023-03-15T03:36:25;100494.38;;;-3.47;100.00
55301;BME280;58302;51.446;-2.000;2023-03-15T03:38:52;100490.25;;;-3.50;100.00
55301;BME280;58302;51.446;-2.000;2023-03-15T03:41:18;100474.78;;;-3.46;100.00
55301;BME280;58302;51.446;-2.000;2023-03-15T03:43:44;100471.97;;;-3.45;100.00
55301;BME280;58302;51.446;-2.000;2023-03-15T03:46:10;100473.31;;;-3.49;100.00
55301;BME280;58302;51.446;-2.000;2023-03-15T03:48:36;100469.19;;;-3.59;100.00
55301;BME280;58302;51.446;-2.000;2023-03-15T03:51:02;100469.75;;;-3.72;100.00
55301;BME280;58302;51.446;-2.000;2023-03-15T03:53:28;100460.50;;;-3.84;100.00
55301;BME280;58302;51.446;-2.000;2023-03-15T03:55:54;100461.84;;;-3.97;100.00
55301;BME280;58302;51.446;-2.000;2023-03-15T03:58:21;100470.88;;;-4.06;100.00
55301;BME280;58302;51.446;-2.000;2023-03-15T04:00:47;100463.59;;;-4.12;100.00
55301;BME280;58302;51.446;-2.000;2023-03-15T04:03:13;100459.44;;;-4.14;100.00
55301;BME280;58302;51.446;-2.000;2023-03-15T04:05:39;100456.28;;;-4.10;100.00
55301;BME280;58302;51.446;-2.000;2023-03-15T04:08:06;100462.91;;;-4.06;100.00
55301;BME280;58302;51.446;-2.000;2023-03-15T04:10:32;100455.75;;;-4.05;100.00
55301;BME280;58302;51.446;-2.000;2023-03-15T04:13:00;100456.28;;;-4.10;100.00
55301;BME280;58302;51.446;-2.000;2023-03-15T04:15:26;100457.28;;;-4.11;100.00
55301;BME280;58302;51.446;-2.000;2023-03-15T04:17:52;100454.63;;;-4.11;100.00
55301;BME280;58302;51.446;-2.000;2023-03-15T04:20:23;100446.34;;;-4.16;100.00
55301;BME280;58302;51.446;-2.000;2023-03-15T04:22:49;100443.69;;;-4.16;100.00
55301;BME280;58302;51.446;-2.000;2023-03-15T04:25:16;100447.97;;;-4.15;100.00
55301;BME280;58302;51.446;-2.000;2023-03-15T04:27:42;100444.31;;;-4.14;100.00
55301;BME280;58302;51.446;-2.000;2023-03-15T04:30:09;100448.16;;;-4.16;100.00
55301;BME280;58302;51.446;-2.000;2023-03-15T04:32:35;100452.31;;;-4.22;100.00
55301;BME280;58302;51.446;-2.000;2023-03-15T04:35:02;100447.00;;;-4.22;100.00
55301;BME280;58302;51.446;-2.000;2023-03-15T04:37:29;100441.22;;;-4.26;100.00
55301;BME280;58302;51.446;-2.000;2023-03-15T04:39:57;100437.09;;;-4.28;100.00
55301;BME280;58302;51.446;-2.000;2023-03-15T04:42:22;100433.28;;;-4.34;100.00
55301;BME280;58302;51.446;-2.000;2023-03-15T04:44:51;100431.78;;;-4.36;100.00
55301;BME280;58302;51.446;-2.000;2023-03-15T04:47:18;100439.09;;;-4.38;100.00
55301;BME280;58302;51.446;-2.000;2023-03-15T04:49:45;100433.47;;;-4.43;100.00
55301;BME280;58302;51.446;-2.000;2023-03-15T04:52:11;100443.41;;;-4.37;100.00
55301;BME280;58302;51.446;-2.000;2023-03-15T04:54:37;100436.59;;;-4.32;100.00
55301;BME280;58302;51.446;-2.000;2023-03-15T04:57:04;100436.72;;;-4.25;100.00
55301;BME280;58302;51.446;-2.000;2023-03-15T04:59:30;100434.72;;;-4.23;100.00
55301;BME280;58302;51.446;-2.000;2023-03-15T05:01:56;100430.09;;;-4.21;100.00
55301;BME280;58302;51.446;-2.000;2023-03-15T05:04:22;100435.41;;;-4.29;100.00
55301;BME280;58302;51.446;-2.000;2023-03-15T05:06:47;100427.13;;;-4.34;100.00
55301;BME280;58302;51.446;-2.000;2023-03-15T05:09:13;100431.78;;;-4.28;100.00
55301;BME280;58302;51.446;-2.000;2023-03-15T05:11:44;100434.06;;;-4.25;100.00
55301;BME280;58302;51.446;-2.000;2023-03-15T05:14:11;100437.38;;;-4.15;100.00
55301;BME280;58302;51.446;-2.000;2023-03-15T05:16:37;100447.47;;;-4.10;100.00
55301;BME280;58302;51.446;-2.000;2023-03-15T05:19:03;100447.63;;;-4.04;100.00
55301;BME280;58302;51.446;-2.000;2023-03-15T05:21:29;100447.44;;;-4.02;100.00
55301;BME280;58302;51.446;-2.000;2023-03-15T05:23:57;100455.91;;;-4.07;100.00
55301;BME280;58302;51.446;-2.000;2023-03-15T05:26:23;100453.78;;;-4.11;100.00
55301;BME280;58302;51.446;-2.000;2023-03-15T05:28:49;100459.25;;;-4.05;100.00
55301;BME280;58302;51.446;-2.000;2023-03-15T05:31:17;100455.22;;;-3.92;100.00
55301;BME280;58302;51.446;-2.000;2023-03-15T05:33:43;100455.53;;;-3.87;100.00
55301;BME280;58302;51.446;-2.000;2023-03-15T05:36:12;100452.56;;;-3.84;100.00
55301;BME280;58302;51.446;-2.000;2023-03-15T05:38:42;100461.84;;;-3.88;100.00
55301;BME280;58302;51.446;-2.000;2023-03-15T05:41:08;100462.84;;;-3.98;100.00
55301;BME280;58302;51.446;-2.000;2023-03-15T05:43:34;100459.75;;;-4.09;100.00
55301;BME280;58302;51.446;-2.000;2023-03-15T05:46:00;100472.50;;;-4.13;100.00
55301;BME280;58302;51.446;-2.000;2023-03-15T05:48:26;100469.53;;;-4.18;100.00
55301;BME280;58302;51.446;-2.000;2023-03-15T05:50:52;100472.19;;;-4.18;100.00
55301;BME280;58302;51.446;-2.000;2023-03-15T05:53:18;100475.03;;;-4.11;100.00
55301;BME280;58302;51.446;-2.000;2023-03-15T05:55:44;100468.34;;;-4.07;100.00
55301;BME280;58302;51.446;-2.000;2023-03-15T05:58:10;100470.69;;;-4.04;100.00
55301;BME280;58302;51.446;-2.000;2023-03-15T06:00:36;100466.19;;;-4.04;100.00
55301;BME280;58302;51.446;-2.000;2023-03-15T06:03:02;100467.53;;;-4.00;100.00
55301;BME280;58302;51.446;-2.000;2023-03-15T06:05:28;100459.06;;;-3.95;100.00
55301;BME280;58302;51.446;-2.000;2023-03-15T06:07:54;100463.34;;;-3.94;100.00
55301;BME280;58302;51.446;-2.000;2023-03-15T06:10:20;100463.50;;;-3.87;100.00
55301;BME280;58302;51.446;-2.000;2023-03-15T06:12:46;100475.75;;;-3.78;100.00
55301;BME280;58302;51.446;-2.000;2023-03-15T06:15:12;100473.19;;;-3.63;100.00
55301;BME280;58302;51.446;-2.000;2023-03-15T06:17:38;100485.41;;;-3.46;100.00
55301;BME280;58302;51.446;-2.000;2023-03-15T06:20:04;100478.72;;;-3.34;100.00
55301;BME280;58302;51.446;-2.000;2023-03-15T06:22:30;100476.69;;;-3.32;100.00
55301;BME280;58302;51.446;-2.000;2023-03-15T06:24:56;100473.53;;;-3.27;100.00
55301;BME280;58302;51.446;-2.000;2023-03-15T06:27:22;100475.34;;;-3.28;100.00
55301;BME280;58302;51.446;-2.000;2023-03-15T06:29:48;100482.31;;;-3.27;100.00
55301;BME280;58302;51.446;-2.000;2023-03-15T06:32:15;100477.66;;;-3.25;100.00
55301;BME280;58302;51.446;-2.000;2023-03-15T06:34:41;100474.84;;;-3.23;100.00
55301;BME280;58302;51.446;-2.000;2023-03-15T06:37:07;100480.09;;;-3.15;100.00
55301;BME280;58302;51.446;-2.000;2023-03-15T06:39:33;100482.72;;;-3.07;100.00
55301;BME280;58302;51.446;-2.000;2023-03-15T06:41:59;100477.31;;;-2.99;100.00
55301;BME280;58302;51.446;-2.000;2023-03-15T06:44:27;100481.78;;;-2.91;100.00
55301;BME280;58302;51.446;-2.000;2023-03-15T06:46:53;100483.94;;;-2.95;100.00
55301;BME280;58302;51.446;-2.000;2023-03-15T06:49:19;100495.75;;;-2.97;100.00
55301;BME280;58302;51.446;-2.000;2023-03-15T06:51:45;100496.94;;;-3.00;100.00
55301;BME280;58302;51.446;-2.000;2023-03-15T06:54:11;100492.63;;;-3.01;100.00
55301;BME280;58302;51.446;-2.000;2023-03-15T06:56:37;100487.63;;;-2.96;100.00
55301;BME280;58302;51.446;-2.000;2023-03-15T06:59:03;100490.59;;;-2.90;100.00
55301;BME280;58302;51.446;-2.000;2023-03-15T07:01:30;100491.53;;;-2.83;100.00
55301;BME280;58302;51.446;-2.000;2023-03-15T07:03:56;100487.81;;;-2.74;100.00
55301;BME280;58302;51.446;-2.000;2023-03-15T07:06:22;100490.50;;;-2.59;100.00
55301;BME280;58302;51.446;-2.000;2023-03-15T07:08:48;100489.84;;;-2.39;100.00
55301;BME280;58302;51.446;-2.000;2023-03-15T07:11:14;100501.63;;;-2.18;100.00
55301;BME280;58302;51.446;-2.000;2023-03-15T07:13:40;100492.47;;;-2.01;100.00
55301;BME280;58302;51.446;-2.000;2023-03-15T07:16:06;100490.66;;;-1.86;100.00
55301;BME280;58302;51.446;-2.000;2023-03-15T07:18:32;100493.94;;;-1.69;100.00
55301;BME280;58302;51.446;-2.000;2023-03-15T07:21:00;100487.78;;;-1.54;100.00
55301;BME280;58302;51.446;-2.000;2023-03-15T07:23:27;100484.47;;;-1.42;100.00
55301;BME280;58302;51.446;-2.000;2023-03-15T07:25:54;100477.00;;;-1.31;100.00
55301;BME280;58302;51.446;-2.000;2023-03-15T07:28:21;100477.72;;;-1.23;100.00
55301;BME280;58302;51.446;-2.000;2023-03-15T07:30:58;100473.47;;;-1.17;100.00
55301;BME280;58302;51.446;-2.000;2023-03-15T07:33:25;100480.34;;;-1.08;100.00
55301;BME280;58302;51.446;-2.000;2023-03-15T07:35:53;100488.41;;;-1.01;100.00
55301;BME280;58302;51.446;-2.000;2023-03-15T07:38:24;100488.72;;;-0.90;100.00
55301;BME280;58302;51.446;-2.000;2023-03-15T07:40:50;100485.31;;;-0.84;100.00
55301;BME280;58302;51.446;-2.000;2023-03-15T07:43:17;100472.69;;;-0.75;100.00
55301;BME280;58302;51.446;-2.000;2023-03-15T07:45:44;100481.19;;;-0.65;100.00
55301;BME280;58302;51.446;-2.000;2023-03-15T07:48:10;100474.25;;;-0.59;100.00
55301;BME280;58302;51.446;-2.000;2023-03-15T07:50:35;100467.63;;;-0.42;100.00
55301;BME280;58302;51.446;-2.000;2023-03-15T07:53:03;100468.63;;;-0.21;100.00
55301;BME280;58302;51.446;-2.000;2023-03-15T07:55:30;100457.88;;;0.00;100.00
55301;BME280;58302;51.446;-2.000;2023-03-15T07:57:56;100454.69;;;0.18;100.00
55301;BME280;58302;51.446;-2.000;2023-03-15T08:00:22;100451.25;;;0.31;100.00
55301;BME280;58302;51.446;-2.000;2023-03-15T08:02:49;100454.19;;;0.49;100.00
55301;BME280;58302;51.446;-2.000;2023-03-15T08:05:15;100448.50;;;0.65;100.00
55301;BME280;58302;51.446;-2.000;2023-03-15T08:07:44;100450.22;;;0.79;100.00
55301;BME280;58302;51.446;-2.000;2023-03-15T08:10:11;100449.84;;;0.96;100.00
55301;BME280;58302;51.446;-2.000;2023-03-15T08:12:38;100439.59;;;1.19;100.00
55301;BME280;58302;51.446;-2.000;2023-03-15T08:15:05;100438.38;;;1.35;100.00
55301;BME280;58302;51.446;-2.000;2023-03-15T08:17:31;100444.16;;;1.45;100.00
55301;BME280;58302;51.446;-2.000;2023-03-15T08:19:57;100440.44;;;1.66;100.00
55301;BME280;58302;51.446;-2.000;2023-03-15T08:22:23;100437.97;;;1.71;100.00
55301;BME280;58302;51.446;-2.000;2023-03-15T08:24:49;100442.25;;;1.85;100.00
55301;BME280;58302;51.446;-2.000;2023-03-15T08:27:18;100439.34;;;2.00;100.00
55301;BME280;58302;51.446;-2.000;2023-03-15T08:29:43;100438.47;;;2.26;100.00
55301;BME280;58302;51.446;-2.000;2023-03-15T08:32:09;100433.50;;;2.36;100.00
55301;BME280;58302;51.446;-2.000;2023-03-15T08:34:36;100428.28;;;2.42;100.00
55301;BME280;58302;51.446;-2.000;2023-03-15T08:37:02;100435.28;;;2.49;100.00
55301;BME280;58302;51.446;-2.000;2023-03-15T08:39:28;100418.72;;;2.66;100.00
55301;BME280;58302;51.446;-2.000;2023-03-15T08:41:54;100424.72;;;2.61;100.00
55301;BME280;58302;51.446;-2.000;2023-03-15T08:44:20;100418.03;;;2.77;100.00
55301;BME280;58302;51.446;-2.000;2023-03-15T08:46:46;100418.63;;;2.79;100.00
55301;BME280;58302;51.446;-2.000;2023-03-15T08:49:12;100416.59;;;2.74;100.00
55301;BME280;58302;51.446;-2.000;2023-03-15T08:51:41;100412.84;;;2.82;100.00
55301;BME280;58302;51.446;-2.000;2023-03-15T08:54:07;100413.25;;;2.79;100.00
55301;BME280;58302;51.446;-2.000;2023-03-15T08:56:33;100417.16;;;2.83;100.00
55301;BME280;58302;51.446;-2.000;2023-03-15T08:58:59;100410.66;;;3.04;100.00
55301;BME280;58302;51.446;-2.000;2023-03-15T09:01:25;100402.94;;;3.14;100.00
55301;BME280;58302;51.446;-2.000;2023-03-15T09:03:51;100403.88;;;3.26;100.00
55301;BME280;58302;51.446;-2.000;2023-03-15T09:06:17;100401.28;;;3.38;100.00
55301;BME280;58302;51.446;-2.000;2023-03-15T09:08:43;100403.91;;;3.44;100.00
55301;BME280;58302;51.446;-2.000;2023-03-15T09:11:09;100403.44;;;3.54;100.00
55301;BME280;58302;51.446;-2.000;2023-03-15T09:13:35;100400.69;;;3.61;100.00
55301;BME280;58302;51.446;-2.000;2023-03-15T09:16:01;100408.63;;;3.74;100.00
55301;BME280;58302;51.446;-2.000;2023-03-15T09:18:29;100400.75;;;3.97;100.00
55301;BME280;58302;51.446;-2.000;2023-03-15T09:20:55;100403.00;;;4.19;100.00
55301;BME280;58302;51.446;-2.000;2023-03-15T09:23:21;100394.91;;;4.37;100.00
55301;BME280;58302;51.446;-2.000;2023-03-15T09:25:47;100380.00;;;4.53;100.00
55301;BME280;58302;51.446;-2.000;2023-03-15T09:28:13;100384.66;;;4.46;100.00
55301;BME280;58302;51.446;-2.000;2023-03-15T09:30:40;100385.16;;;4.55;100.00
55301;BME280;58302;51.446;-2.000;2023-03-15T09:33:06;100388.50;;;4.68;100.00
55301;BME280;58302;51.446;-2.000;2023-03-15T09:35:32;100392.94;;;4.63;100.00
55301;BME280;58302;51.446;-2.000;2023-03-15T09:37:59;100400.81;;;4.76;100.00
55301;BME280;58302;51.446;-2.000;2023-03-15T09:40:28;100420.19;;;4.85;100.00
55301;BME280;58302;51.446;-2.000;2023-03-15T09:48:33;100536.69;;;4.92;100.00
55301;BME280;58302;51.446;-2.000;2023-03-15T09:51:12;100591.22;;;4.87;100.00
55301;BME280;58302;51.446;-2.000;2023-03-15T09:56:54;100633.09;;;4.83;100.00
55301;BME280;58302;51.446;-2.000;2023-03-15T09:59:23;100652.25;;;4.93;100.00
55301;BME280;58302;51.446;-2.000;2023-03-15T10:01:54;100647.84;;;4.99;100.00
55301;BME280;58302;51.446;-2.000;2023-03-15T10:04:29;100642.75;;;5.09;100.00
55301;BME280;58302;51.446;-2.000;2023-03-15T10:06:57;100646.28;;;5.10;100.00
55301;BME280;58302;51.446;-2.000;2023-03-15T10:09:27;100642.16;;;5.25;100.00
55301;BME280;58302;51.446;-2.000;2023-03-15T10:12:10;100648.00;;;5.41;100.00
55301;BME280;58302;51.446;-2.000;2023-03-15T10:20:16;100641.81;;;5.22;100.00
55301;BME280;58302;51.446;-2.000;2023-03-15T10:23:09;100632.50;;;5.36;100.00
55301;BME280;58302;51.446;-2.000;2023-03-15T10:25:37;100628.47;;;5.45;100.00
55301;BME280;58302;51.446;-2.000;2023-03-15T10:28:09;100625.09;;;5.50;100.00
55301;BME280;58302;51.446;-2.000;2023-03-15T10:30:41;100626.63;;;5.58;100.00
55301;BME280;58302;51.446;-2.000;2023-03-15T10:33:30;100632.78;;;5.46;100.00
55301;BME280;58302;51.446;-2.000;2023-03-15T10:36:00;100619.22;;;5.53;100.00
55301;BME280;58302;51.446;-2.000;2023-03-15T10:38:27;100618.81;;;5.68;100.00
55301;BME280;58302;51.446;-2.000;2023-03-15T10:40:55;100621.88;;;5.71;100.00
55301;BME280;58302;51.446;-2.000;2023-03-15T10:43:27;100621.00;;;5.89;100.00
55301;BME280;58302;51.446;-2.000;2023-03-15T10:46:05;100614.75;;;6.07;100.00
55301;BME280;58302;51.446;-2.000;2023-03-15T10:48:35;100624.84;;;6.12;100.00
55301;BME280;58302;51.446;-2.000;2023-03-15T10:53:53;100628.41;;;6.36;100.00
55301;BME280;58302;51.446;-2.000;2023-03-15T10:56:24;100619.28;;;6.48;100.00
55301;BME280;58302;51.446;-2.000;2023-03-15T10:58:54;100616.56;;;6.60;100.00
55301;BME280;58302;51.446;-2.000;2023-03-15T11:01:26;100623.34;;;6.74;100.00
55301;BME280;58302;51.446;-2.000;2023-03-15T11:06:58;100616.31;;;6.85;100.00
55301;BME280;58302;51.446;-2.000;2023-03-15T11:09:38;100621.94;;;6.95;100.00
55301;BME280;58302;51.446;-2.000;2023-03-15T11:12:11;100628.84;;;7.15;100.00
55301;BME280;58302;51.446;-2.000;2023-03-15T11:14:46;100629.88;;;7.13;100.00
55301;BME280;58302;51.446;-2.000;2023-03-15T11:17:22;100620.78;;;7.43;100.00
55301;BME280;58302;51.446;-2.000;2023-03-15T11:20:00;100625.22;;;7.49;100.00
55301;BME280;58302;51.446;-2.000;2023-03-15T11:22:38;100622.22;;;7.62;100.00
55301;BME280;58302;51.446;-2.000;2023-03-15T11:25:11;100624.16;;;7.50;100.00
55301;BME280;58302;51.446;-2.000;2023-03-15T11:27:39;100618.44;;;7.63;100.00
55301;BME280;58302;51.446;-2.000;2023-03-15T11:30:12;100620.94;;;7.65;100.00
55301;BME280;58302;51.446;-2.000;2023-03-15T11:32:39;100618.53;;;7.40;100.00
55301;BME280;58302;51.446;-2.000;2023-03-15T11:35:12;100621.78;;;7.25;100.00
55301;BME280;58302;51.446;-2.000;2023-03-15T11:40:17;100608.44;;;7.35;100.00
55301;BME280;58302;51.446;-2.000;2023-03-15T11:43:00;100614.31;;;7.44;100.00
55301;BME280;58302;51.446;-2.000;2023-03-15T11:46:13;100608.13;;;7.60;100.00
55301;BME280;58302;51.446;-2.000;2023-03-15T11:48:47;100608.31;;;7.42;100.00
55301;BME280;58302;51.446;-2.000;2023-03-15T11:51:15;100599.00;;;7.50;100.00
55301;BME280;58302;51.446;-2.000;2023-03-15T11:53:45;100600.72;;;7.56;100.00
55301;BME280;58302;51.446;-2.000;2023-03-15T11:56:48;100611.25;;;7.69;100.00
55301;BME280;58302;51.446;-2.000;2023-03-15T11:59:44;100613.53;;;7.60;100.00
55301;BME280;58302;51.446;-2.000;2023-03-15T12:04:42;100598.56;;;7.41;100.00
55301;BME280;58302;51.446;-2.000;2023-03-15T12:17:57;100564.09;;;7.93;100.00
55301;BME280;58302;51.446;-2.000;2023-03-15T12:20:34;100564.81;;;7.89;100.00
55301;BME280;58302;51.446;-2.000;2023-03-15T12:25:55;100560.13;;;8.01;100.00
55301;BME280;58302;51.446;-2.000;2023-03-15T12:30:55;100554.72;;;8.01;100.00
55301;BME280;58302;51.446;-2.000;2023-03-15T12:33:24;100553.44;;;7.87;100.00
55301;BME280;58302;51.446;-2.000;2023-03-15T12:35:58;100552.06;;;7.56;100.00
55301;BME280;58302;51.446;-2.000;2023-03-15T12:38:32;100552.22;;;7.49;100.00
55301;BME280;58302;51.446;-2.000;2023-03-15T12:41:06;100549.00;;;7.52;100.00
55301;BME280;58302;51.446;-2.000;2023-03-15T12:43:39;100542.94;;;7.45;100.00
55301;BME280;58302;51.446;-2.000;2023-03-15T12:54:59;100512.41;;;7.78;100.00
55301;BME280;58302;51.446;-2.000;2023-03-15T12:57:34;100509.88;;;7.72;100.00
55301;BME280;58302;51.446;-2.000;2023-03-15T13:02:42;100499.13;;;8.10;100.00
55301;BME280;58302;51.446;-2.000;2023-03-15T13:15:49;100476.41;;;7.95;100.00
55301;BME280;58302;51.446;-2.000;2023-03-15T13:18:22;100467.91;;;7.86;100.00
55301;BME280;58302;51.446;-2.000;2023-03-15T13:24:09;100464.44;;;7.90;100.00
55301;BME280;58302;51.446;-2.000;2023-03-15T13:26:58;100460.75;;;7.80;100.00
55301;BME280;58302;51.446;-2.000;2023-03-15T13:29:31;100454.69;;;7.89;100.00
55301;BME280;58302;51.446;-2.000;2023-03-15T13:34:32;100454.03;;;7.99;100.00
55301;BME280;58302;51.446;-2.000;2023-03-15T13:36:59;100450.59;;;7.87;100.00
55301;BME280;58302;51.446;-2.000;2023-03-15T13:39:29;100443.22;;;7.99;100.00
55301;BME280;58302;51.446;-2.000;2023-03-15T13:42:00;100429.03;;;7.92;100.00
55301;BME280;58302;51.446;-2.000;2023-03-15T13:44:28;100426.75;;;7.84;100.00
55301;BME280;58302;51.446;-2.000;2023-03-15T13:46:55;100402.41;;;7.67;100.00
55301;BME280;58302;51.446;-2.000;2023-03-15T13:49:22;100413.31;;;7.55;100.00
55301;BME280;58302;51.446;-2.000;2023-03-15T13:51:51;100394.28;;;7.67;100.00
55301;BME280;58302;51.446;-2.000;2023-03-15T13:54:31;100397.56;;;7.86;100.00
55301;BME280;58302;51.446;-2.000;2023-03-15T13:57:12;100395.88;;;8.02;100.00
55301;BME280;58302;51.446;-2.000;2023-03-15T14:00:00;100402.22;;;7.90;100.00